createdAt,value
2022-08-02T00:02:22.983Z,13.06
2022-08-02T00:04:49.524Z,12.99
2022-08-02T00:07:16.065Z,13.05
2022-08-02T00:09:42.817Z,13.13
2022-08-02T00:12:09.788Z,13.05
2022-08-02T00:14:36.823Z,13.07
2022-08-02T00:17:05.192Z,13.06
2022-08-02T00:19:31.622Z,13.01
2022-08-02T00:21:58.071Z,12.95
2022-08-02T00:24:30.969Z,12.97
2022-08-02T00:26:59.095Z,12.97
2022-08-02T00:29:25.550Z,12.94
2022-08-02T00:31:51.947Z,12.86
2022-08-02T00:34:29.101Z,12.89
2022-08-02T00:36:57.963Z,12.90
2022-08-02T00:39:33.558Z,12.90
2022-08-02T00:42:02.281Z,12.89
2022-08-02T00:44:28.769Z,12.82
2022-08-02T00:46:55.307Z,12.86
2022-08-02T00:49:21.854Z,12.79
2022-08-02T00:51:48.347Z,12.78
2022-08-02T00:54:14.802Z,12.75
2022-08-02T00:56:50.116Z,12.68
2022-08-02T00:59:18.475Z,12.71
2022-08-02T01:01:57.128Z,12.70
2022-08-02T01:04:31.507Z,12.73
2022-08-02T01:07:00.441Z,12.74
2022-08-02T01:09:27.394Z,12.73
2022-08-02T01:11:53.793Z,12.71
2022-08-02T01:14:21.654Z,12.67
2022-08-02T01:17:02.794Z,12.65
2022-08-02T01:19:35.182Z,12.71
2022-08-02T01:22:39.645Z,12.68
2022-08-02T01:25:18.246Z,12.58
2022-08-02T01:28:09.321Z,12.65
2022-08-02T01:30:37.742Z,12.56
2022-08-02T01:33:07.292Z,12.55
2022-08-02T01:35:47.165Z,12.63
2022-08-02T01:38:27.900Z,12.54
2022-08-02T01:40:56.532Z,12.55
2022-08-02T01:43:28.301Z,12.53
2022-08-02T01:45:56.442Z,12.59
2022-08-02T01:48:25.637Z,12.60
2022-08-02T01:50:53.793Z,12.62
2022-08-02T01:53:21.835Z,12.62
2022-08-02T01:55:57.682Z,12.62
2022-08-02T01:58:30.602Z,12.62
2022-08-02T02:00:59.464Z,12.68
2022-08-02T02:03:27.768Z,12.59
2022-08-02T02:05:57.735Z,12.62
2022-08-02T02:08:29.165Z,12.58
2022-08-02T02:10:57.299Z,12.60
2022-08-02T02:13:33.177Z,12.53
2022-08-02T02:16:04.743Z,12.53
2022-08-02T02:18:34.283Z,12.54
2022-08-02T02:21:00.774Z,12.61
2022-08-02T02:23:28.015Z,12.63
2022-08-02T02:26:03.928Z,12.59
2022-08-02T02:28:32.607Z,12.66
2022-08-02T02:31:05.127Z,12.61
2022-08-02T02:33:35.272Z,12.53
2022-08-02T02:36:03.459Z,12.57
2022-08-02T02:38:32.889Z,12.51
2022-08-02T02:41:02.908Z,12.57
2022-08-02T02:43:32.334Z,12.47
2022-08-02T02:45:59.738Z,12.47
2022-08-02T02:48:29.028Z,12.43
2022-08-02T02:50:56.140Z,12.32
2022-08-02T02:53:23.282Z,12.33
2022-08-02T02:56:01.980Z,12.40
2022-08-02T02:58:31.128Z,12.39
2022-08-02T03:00:57.702Z,12.46
2022-08-02T03:03:25.748Z,12.51
2022-08-02T03:05:52.268Z,12.55
2022-08-02T03:08:18.959Z,12.59
2022-08-02T03:10:45.873Z,12.62
2022-08-02T03:13:12.917Z,12.68
2022-08-02T03:15:40.110Z,12.55
2022-08-02T03:18:06.610Z,12.54
2022-08-02T03:20:33.189Z,12.57
2022-08-02T03:22:59.608Z,12.62
2022-08-02T03:25:26.210Z,12.55
2022-08-02T03:27:52.586Z,12.52
2022-08-02T03:30:18.994Z,12.49
2022-08-02T03:32:48.313Z,12.46
2022-08-02T03:35:22.866Z,12.43
2022-08-02T03:37:52.376Z,12.47
2022-08-02T03:40:19.146Z,12.46
2022-08-02T03:42:46.394Z,12.50
2022-08-02T03:45:13.528Z,12.57
2022-08-02T03:47:40.485Z,12.50
2022-08-02T03:50:08.590Z,12.43
2022-08-02T03:52:36.668Z,12.55
2022-08-02T03:55:03.477Z,12.58
2022-08-02T03:57:29.989Z,12.55
2022-08-02T03:59:56.648Z,12.56
2022-08-02T04:02:23.071Z,12.60
2022-08-02T04:04:49.472Z,12.54
2022-08-02T04:07:15.933Z,12.48
2022-08-02T04:10:02.478Z,12.46
2022-08-02T04:12:28.888Z,12.54
2022-08-02T04:14:55.375Z,12.60
2022-08-02T04:17:23.160Z,12.71
2022-08-02T04:20:02.048Z,12.68
2022-08-02T04:22:42.126Z,12.68
2022-08-02T04:25:15.571Z,12.80
2022-08-02T04:27:50.087Z,12.89
2022-08-02T04:30:32.147Z,13.04
2022-08-02T04:32:59.596Z,13.23
2022-08-02T04:35:26.738Z,13.37
2022-08-02T04:38:05.806Z,13.40
2022-08-02T04:40:37.356Z,13.54
2022-08-02T04:43:03.833Z,13.72
2022-08-02T04:45:31.396Z,13.77
2022-08-02T04:48:06.108Z,13.88
2022-08-02T04:50:33.510Z,14.01
2022-08-02T04:53:00.017Z,14.06
2022-08-02T04:55:26.537Z,14.05
2022-08-02T04:57:53.321Z,14.13
2022-08-02T05:00:19.972Z,14.02
2022-08-02T05:02:46.708Z,14.07
2022-08-02T05:05:13.133Z,14.05
2022-08-02T05:07:39.569Z,14.04
2022-08-02T05:10:06.452Z,14.09
2022-08-02T05:12:32.933Z,14.10
2022-08-02T05:14:59.344Z,14.03
2022-08-02T05:17:25.808Z,13.97
2022-08-02T05:19:52.228Z,14.11
2022-08-02T05:22:18.669Z,14.17
2022-08-02T05:24:45.088Z,14.30
2022-08-02T05:27:16.532Z,14.46
2022-08-02T05:29:51.222Z,14.72
2022-08-02T05:32:20.389Z,15.86
2022-08-02T05:34:50.321Z,18.05
2022-08-02T05:37:16.806Z,19.97
2022-08-02T05:39:55.789Z,21.73
2022-08-02T05:42:23.256Z,23.00
2022-08-02T05:44:49.755Z,23.36
2022-08-02T05:47:16.402Z,24.95
2022-08-02T05:49:42.851Z,25.53
2022-08-02T05:52:16.122Z,26.26
2022-08-02T05:55:05.073Z,25.01
2022-08-02T05:58:11.792Z,24.19
2022-08-02T06:00:41.272Z,23.46
2022-08-02T06:03:31.562Z,23.28
2022-08-02T06:06:14.253Z,23.50
2022-08-02T06:08:50.270Z,22.47
2022-08-02T06:11:21.453Z,22.18
2022-08-02T06:13:47.948Z,22.63
2022-08-02T06:16:14.978Z,22.37
2022-08-02T06:18:42.571Z,22.11
2022-08-02T06:22:31.641Z,21.33
2022-08-02T06:23:59.120Z,20.68
2022-08-02T06:26:27.665Z,20.65
2022-08-02T06:28:56.024Z,20.77
2022-08-02T06:31:22.953Z,20.89
2022-08-02T06:33:49.497Z,21.12
2022-08-02T06:36:34.496Z,22.87
2022-08-02T06:39:24.712Z,25.07
2022-08-02T06:41:54.990Z,26.58
2022-08-02T06:44:49.704Z,26.89
2022-08-02T06:47:12.426Z,28.22
2022-08-02T06:49:52.953Z,28.47
2022-08-02T06:52:30.684Z,26.95
2022-08-02T06:55:02.132Z,26.03
2022-08-02T06:57:29.389Z,24.96
2022-08-02T06:59:56.309Z,24.68
2022-08-02T07:02:22.943Z,25.81
2022-08-02T07:04:49.556Z,26.93
2022-08-02T07:07:16.072Z,28.10
2022-08-02T07:10:00.491Z,29.72
2022-08-02T07:12:29.487Z,30.10
2022-08-02T07:14:56.759Z,30.52
2022-08-02T07:17:23.143Z,29.50
2022-08-02T07:19:49.567Z,29.17
2022-08-02T07:22:16.461Z,28.59
2022-08-02T07:24:43.157Z,29.00
2022-08-02T07:27:11.654Z,29.51
2022-08-02T07:29:46.101Z,29.91
2022-08-02T07:32:18.062Z,31.27
2022-08-02T07:34:50.615Z,31.75
2022-08-02T07:37:35.358Z,31.99
2022-08-02T07:40:12.650Z,32.12
2022-08-02T07:42:40.340Z,33.02
2022-08-02T07:45:07.148Z,33.66
2022-08-02T07:47:39.601Z,32.24
2022-08-02T07:50:07.655Z,31.76
2022-08-02T07:52:34.811Z,31.45
2022-08-02T07:55:01.505Z,31.08
2022-08-02T07:57:28.122Z,31.01
2022-08-02T07:59:54.520Z,31.46
2022-08-02T08:02:20.970Z,31.78
2022-08-02T08:04:47.365Z,31.55
2022-08-02T08:07:13.806Z,31.31
2022-08-02T08:09:40.572Z,32.15
2022-08-02T08:12:08.866Z,32.45
2022-08-02T08:14:36.315Z,33.40
2022-08-02T08:17:03.367Z,34.26
2022-08-02T08:19:50.121Z,34.50
2022-08-02T08:22:16.308Z,36.05
2022-08-02T08:24:42.722Z,34.56
2022-08-02T08:27:09.273Z,35.04
2022-08-02T08:29:35.678Z,35.49
2022-08-02T08:32:02.121Z,33.61
2022-08-02T08:34:28.562Z,33.42
2022-08-02T08:36:54.967Z,32.89
2022-08-02T08:39:21.483Z,33.44
2022-08-02T08:41:47.974Z,33.45
2022-08-02T08:44:14.476Z,33.14
2022-08-02T08:46:43.534Z,33.52
2022-08-02T08:49:16.630Z,34.18
2022-08-02T08:51:44.209Z,34.99
2022-08-02T08:54:15.195Z,34.38
2022-08-02T08:56:43.086Z,34.13
2022-08-02T08:59:10.735Z,34.92
2022-08-02T09:01:49.820Z,33.64
2022-08-02T09:04:21.016Z,33.56
2022-08-02T09:06:51.857Z,32.13
2022-08-02T09:09:19.629Z,31.58
2022-08-02T09:11:46.179Z,30.53
2022-08-02T09:14:26.576Z,31.08
2022-08-02T09:16:53.017Z,32.44
2022-08-02T09:19:24.706Z,33.14
2022-08-02T09:22:12.486Z,33.68
2022-08-02T09:24:42.168Z,33.95
2022-08-02T09:27:17.311Z,34.00
2022-08-02T09:30:13.613Z,35.18
2022-08-02T09:32:46.264Z,34.26
2022-08-02T09:35:12.744Z,33.67
2022-08-02T09:37:39.149Z,34.05
2022-08-02T09:40:06.088Z,34.76
2022-08-02T09:42:32.681Z,34.30
2022-08-02T09:45:01.346Z,33.50
2022-08-02T09:47:31.092Z,32.96
2022-08-02T09:49:58.561Z,32.70
2022-08-02T09:52:36.857Z,32.10
2022-08-02T09:55:11.799Z,31.85
2022-08-02T09:57:38.402Z,30.72
2022-08-02T10:00:14.903Z,31.99
2022-08-02T10:03:21.537Z,32.95
2022-08-02T10:05:55.670Z,33.65
2022-08-02T10:08:22.482Z,34.71
2022-08-02T10:10:48.905Z,35.71
2022-08-02T10:13:19.984Z,34.68
2022-08-02T10:15:50.449Z,34.18
2022-08-02T10:18:37.006Z,32.89
2022-08-02T10:21:07.673Z,32.16
2022-08-02T10:23:36.353Z,32.66
2022-08-02T10:26:03.238Z,31.51
2022-08-02T10:28:29.796Z,30.69
2022-08-02T10:30:57.552Z,30.09
2022-08-02T10:33:25.913Z,30.66
2022-08-02T10:36:04.560Z,31.46
2022-08-02T10:38:35.202Z,31.36
2022-08-02T10:41:01.703Z,30.88
2022-08-02T10:43:37.032Z,31.49
2022-08-02T10:46:30.788Z,31.11
2022-08-02T10:52:03.481Z,29.60
2022-08-02T10:54:42.822Z,29.45
2022-08-02T10:57:31.253Z,29.52
2022-08-02T11:00:00.648Z,29.10
2022-08-02T11:02:47.697Z,28.32
2022-08-02T11:05:43.398Z,28.39
2022-08-02T11:08:21.539Z,28.04
2022-08-02T11:10:48.089Z,27.60
2022-08-02T11:13:18.666Z,27.18
2022-08-02T11:15:50.981Z,27.22
2022-08-02T11:18:18.149Z,27.59
2022-08-02T11:20:44.691Z,27.77
2022-08-02T11:23:44.188Z,28.28
2022-08-02T11:26:30.516Z,27.89
2022-08-02T11:28:58.501Z,28.28
2022-08-02T11:31:25.829Z,28.54
2022-08-02T11:33:53.497Z,27.82
2022-08-02T11:36:20.341Z,27.59
2022-08-02T11:38:49.614Z,27.07
2022-08-02T11:41:46.806Z,26.84
2022-08-02T11:44:07.251Z,27.01
2022-08-02T11:46:33.957Z,26.92
2022-08-02T11:49:18.416Z,26.66
2022-08-02T11:51:56.088Z,26.87
2022-08-02T11:54:35.245Z,26.43
2022-08-02T11:57:18.946Z,26.19
2022-08-02T11:59:48.992Z,25.96
2022-08-02T12:02:16.465Z,26.03
2022-08-02T12:04:44.156Z,25.91
2022-08-02T12:07:10.629Z,26.08
2022-08-02T12:09:41.117Z,25.91
2022-08-02T12:12:08.086Z,25.83
2022-08-02T12:14:42.173Z,25.57
2022-08-02T12:17:08.928Z,25.36
2022-08-02T12:19:37.523Z,25.10
2022-08-02T12:22:27.247Z,25.22
2022-08-02T12:25:14.952Z,25.07
2022-08-02T12:28:23.749Z,25.19
2022-08-02T12:31:00.275Z,25.12
2022-08-02T12:33:51.315Z,25.12
2022-08-02T12:36:25.187Z,25.12
2022-08-02T12:39:04.856Z,25.34
2022-08-02T12:41:32.762Z,25.30
2022-08-02T12:44:00.612Z,25.56
2022-08-02T12:46:27.141Z,25.82
2022-08-02T12:49:16.910Z,26.01
2022-08-02T12:51:55.659Z,26.43
2022-08-02T12:54:38.755Z,26.24
2022-08-02T12:57:12.966Z,26.36
2022-08-02T12:59:40.985Z,26.20
2022-08-02T13:02:10.282Z,26.23
2022-08-02T13:04:37.799Z,26.18
2022-08-02T13:07:05.161Z,26.33
2022-08-02T13:09:42.640Z,26.15
2022-08-02T13:12:10.575Z,26.51
2022-08-02T13:14:41.712Z,26.34
2022-08-02T13:17:12.172Z,26.30
2022-08-02T13:19:39.079Z,26.26
2022-08-02T13:22:05.879Z,26.23
2022-08-02T13:24:41.185Z,26.48
2022-08-02T13:27:20.772Z,26.45
2022-08-02T13:29:47.937Z,26.51
2022-08-02T13:32:14.785Z,25.90
2022-08-02T13:34:41.608Z,25.84
2022-08-02T13:37:08.084Z,25.52
2022-08-02T13:39:34.704Z,25.68
2022-08-02T13:42:01.223Z,25.86
2022-08-02T13:44:27.746Z,26.10
2022-08-02T13:46:54.210Z,25.92
2022-08-02T13:49:21.670Z,26.13
2022-08-02T13:51:48.714Z,26.17
2022-08-02T13:54:16.483Z,26.24
2022-08-02T13:56:43.188Z,26.19
2022-08-02T13:59:54.867Z,26.30
2022-08-02T14:01:56.760Z,26.26
2022-08-02T14:04:23.990Z,26.19
2022-08-02T14:06:50.525Z,26.21
2022-08-02T14:09:17.478Z,26.65
2022-08-02T14:11:45.241Z,26.92
2022-08-02T14:14:16.712Z,27.02
2022-08-02T14:16:45.371Z,27.47
2022-08-02T14:19:15.471Z,27.94
2022-08-02T14:21:48.073Z,28.04
2022-08-02T14:24:16.131Z,27.37
2022-08-02T14:26:43.389Z,26.71
2022-08-02T14:29:10.374Z,26.92
2022-08-02T14:31:41.637Z,27.00
2022-08-02T14:34:11.039Z,27.60
2022-08-02T14:36:38.231Z,27.46
2022-08-02T14:39:04.945Z,27.39
2022-08-02T14:41:31.381Z,27.55
2022-08-02T14:43:57.793Z,27.45
2022-08-02T14:46:24.297Z,27.13
2022-08-02T14:48:50.735Z,27.00
2022-08-02T14:51:17.247Z,27.01
2022-08-02T14:53:49.110Z,27.29
2022-08-02T14:56:16.333Z,27.57
2022-08-02T14:58:42.726Z,27.62
2022-08-02T15:01:09.365Z,27.24
2022-08-02T15:03:43.242Z,27.06
2022-08-02T15:06:10.349Z,27.18
2022-08-02T15:08:36.835Z,27.19
2022-08-02T15:11:03.518Z,27.09
2022-08-02T15:13:30.010Z,27.15
2022-08-02T15:15:56.730Z,27.16
2022-08-02T15:18:23.187Z,26.77
2022-08-02T15:20:57.340Z,26.97
2022-08-02T15:23:25.203Z,26.57
2022-08-02T15:26:06.167Z,26.68
2022-08-02T15:28:33.591Z,26.58
2022-08-02T15:31:00.001Z,26.79
2022-08-02T15:33:26.735Z,26.70
2022-08-02T15:35:53.111Z,26.92
2022-08-02T15:38:19.507Z,26.92
2022-08-02T15:40:45.924Z,26.39
2022-08-02T15:43:12.442Z,26.33
2022-08-02T15:45:40.277Z,26.33
2022-08-02T15:48:06.878Z,26.38
2022-08-02T15:50:33.286Z,26.68
2022-08-02T15:52:59.706Z,26.70
2022-08-02T15:55:26.146Z,26.53
2022-08-02T15:57:52.576Z,26.63
2022-08-02T16:00:19.277Z,26.45
2022-08-02T16:02:47.037Z,26.29
2022-08-02T16:05:15.153Z,26.13
2022-08-02T16:07:41.546Z,25.94
2022-08-02T16:10:08.321Z,25.93
2022-08-02T16:12:34.960Z,26.15
2022-08-02T16:15:01.387Z,26.26
2022-08-02T16:17:51.273Z,26.45
2022-08-02T16:20:14.429Z,26.31
2022-08-02T16:22:41.138Z,26.51
2022-08-02T16:25:08.061Z,26.34
2022-08-02T16:27:34.477Z,26.47
2022-08-02T16:30:20.901Z,26.48
2022-08-02T16:32:47.493Z,26.25
2022-08-02T16:35:13.937Z,26.25
2022-08-02T16:37:52.160Z,25.98
2022-08-02T16:40:19.351Z,26.00
2022-08-02T16:42:50.254Z,25.58
2022-08-02T16:45:19.938Z,25.11
2022-08-02T16:47:55.858Z,24.77
2022-08-02T16:50:27.237Z,24.73
2022-08-02T16:52:56.158Z,25.34
2022-08-02T16:55:22.565Z,25.65
2022-08-02T16:57:50.200Z,25.78
2022-08-02T17:00:17.001Z,25.70
2022-08-02T17:02:44.141Z,25.32
2022-08-02T17:05:14.702Z,25.01
2022-08-02T17:08:08.204Z,24.80
2022-08-02T17:10:28.617Z,25.02
2022-08-02T17:12:58.512Z,25.34
2022-08-02T17:16:17.180Z,25.38
2022-08-02T17:18:26.452Z,25.46
2022-08-02T17:20:54.149Z,25.28
2022-08-02T17:23:20.678Z,24.70
2022-08-02T17:25:52.288Z,24.44
2022-08-02T17:28:19.407Z,24.24
2022-08-02T17:30:45.821Z,24.09
2022-08-02T17:33:12.516Z,24.03
2022-08-02T17:35:43.310Z,24.06
2022-08-02T17:38:26.152Z,24.43
2022-08-02T17:40:54.848Z,24.53
2022-08-02T17:43:21.607Z,24.56
2022-08-02T17:45:59.750Z,24.68
2022-08-02T17:48:36.725Z,24.67
2022-08-02T17:51:03.852Z,24.63
2022-08-02T17:53:36.447Z,24.59
2022-08-02T17:56:02.993Z,24.84
2022-08-02T17:58:33.122Z,24.86
2022-08-02T18:01:00.177Z,24.54
2022-08-02T18:03:27.879Z,24.27
2022-08-02T18:05:55.482Z,24.29
2022-08-02T18:08:23.644Z,24.09
2022-08-02T18:10:51.857Z,24.01
2022-08-02T18:13:18.281Z,23.90
2022-08-02T18:15:45.462Z,23.99
2022-08-02T18:18:13.097Z,23.89
2022-08-02T18:20:40.929Z,23.85
2022-08-02T18:23:10.913Z,23.81
2022-08-02T18:25:45.730Z,23.69
2022-08-02T18:28:14.279Z,23.60
2022-08-02T18:30:40.856Z,23.60
2022-08-02T18:33:55.359Z,23.57
2022-08-02T18:35:55.269Z,23.39
2022-08-02T18:38:22.915Z,23.37
2022-08-02T18:40:51.181Z,23.31
2022-08-02T18:43:18.249Z,23.22
2022-08-02T18:46:05.323Z,23.24
2022-08-02T18:48:31.186Z,23.25
2022-08-02T18:50:57.868Z,23.19
2022-08-02T18:53:39.016Z,23.18
2022-08-02T18:56:08.612Z,23.21
2022-08-02T18:58:35.126Z,23.11
2022-08-02T19:01:05.140Z,23.07
2022-08-02T19:03:41.446Z,22.98
2022-08-02T19:06:16.306Z,22.89
2022-08-02T19:08:46.373Z,22.80
2022-08-02T19:11:35.114Z,22.77
2022-08-02T19:14:02.175Z,22.75
2022-08-02T19:16:37.002Z,22.77
2022-08-02T19:19:07.386Z,22.67
2022-08-02T19:22:15.840Z,22.59
2022-08-02T19:24:20.263Z,22.50
2022-08-02T19:26:51.106Z,22.52
2022-08-02T19:29:19.587Z,22.42
2022-08-02T19:32:06.338Z,22.35
2022-08-02T19:34:52.866Z,22.30
2022-08-02T19:37:19.282Z,22.23
2022-08-02T19:39:46.015Z,22.20
2022-08-02T19:42:12.557Z,22.17
2022-08-02T19:44:43.201Z,22.18
2022-08-02T19:47:11.925Z,22.16
2022-08-02T19:49:40.305Z,22.11
2022-08-02T19:52:20.476Z,22.11
2022-08-02T19:54:55.545Z,22.02
2022-08-02T19:57:25.017Z,22.01
2022-08-02T19:59:52.222Z,21.84
2022-08-02T20:02:19.209Z,21.69
2022-08-02T20:04:49.949Z,21.51
2022-08-02T20:07:48.222Z,21.59
2022-08-02T20:10:11.003Z,21.52
2022-08-02T20:12:39.164Z,21.47
2022-08-02T20:15:14.380Z,21.27
2022-08-02T20:17:43.652Z,21.24
2022-08-02T20:20:14.671Z,21.20
2022-08-02T20:22:41.109Z,21.24
2022-08-02T20:25:10.140Z,21.19
2022-08-02T20:27:51.016Z,21.08
2022-08-02T20:30:18.085Z,21.02
2022-08-02T20:35:30.901Z,21.09
2022-08-02T20:38:02.185Z,21.08
2022-08-02T20:40:29.342Z,21.07
2022-08-02T20:42:55.990Z,21.09
2022-08-02T20:45:23.604Z,21.05
2022-08-02T20:47:54.992Z,21.05
2022-08-02T20:50:31.704Z,21.07
2022-08-02T20:53:03.940Z,20.99
2022-08-02T20:55:31.657Z,20.97
2022-08-02T20:58:00.299Z,20.93
2022-08-02T21:00:28.311Z,21.35
2022-08-02T21:02:55.466Z,21.07
2022-08-02T21:05:26.696Z,20.92
2022-08-02T21:08:11.547Z,20.85
2022-08-02T21:10:41.734Z,20.80
2022-08-02T21:13:22.376Z,20.74
2022-08-02T21:15:50.869Z,20.72
2022-08-02T21:18:27.702Z,20.72
2022-08-02T21:21:03.925Z,20.60
2022-08-02T21:23:30.352Z,20.57
2022-08-02T21:26:03.002Z,20.60
2022-08-02T21:28:43.572Z,20.53
2022-08-02T21:31:18.357Z,20.49
2022-08-02T21:33:58.221Z,20.47
2022-08-02T21:38:58.109Z,20.38
2022-08-02T21:41:24.575Z,20.35
2022-08-02T21:44:06.985Z,20.31
2022-08-02T21:46:33.452Z,20.28
2022-08-02T21:49:01.333Z,20.35
2022-08-02T21:51:34.255Z,20.34
2022-08-02T21:54:17.720Z,20.26
2022-08-02T21:56:52.017Z,20.18
2022-08-02T21:59:25.281Z,20.13
2022-08-02T22:01:53.131Z,20.08
2022-08-02T22:04:20.726Z,20.01
2022-08-02T22:06:49.114Z,20.00
2022-08-02T22:09:44.108Z,19.97
2022-08-02T22:12:09.742Z,19.95
2022-08-02T22:14:37.198Z,19.99
2022-08-02T22:17:08.458Z,19.93
2022-08-02T22:19:35.910Z,19.86
2022-08-02T22:22:02.327Z,19.83
2022-08-02T22:24:30.073Z,19.84
2022-08-02T22:26:57.032Z,19.85
2022-08-02T22:29:23.581Z,19.82
2022-08-02T22:31:50.100Z,19.76
2022-08-02T22:34:36.989Z,19.76
2022-08-02T22:37:05.716Z,19.78
2022-08-02T22:39:32.426Z,19.72
2022-08-02T22:42:05.381Z,19.73
2022-08-02T22:47:19.669Z,19.76
2022-08-02T22:49:54.408Z,19.76
2022-08-02T22:52:22.789Z,19.73
2022-08-02T22:54:50.822Z,19.71
2022-08-02T22:57:17.755Z,19.72
2022-08-02T22:58:55.695Z,21.05
2022-08-02T22:59:09.787Z,19.74
2022-08-02T22:59:56.697Z,19.61
2022-08-02T23:02:23.100Z,19.65
2022-08-02T23:04:51.793Z,19.62
2022-08-02T23:07:18.496Z,19.55
2022-08-02T23:09:44.912Z,19.57
2022-08-02T23:12:11.399Z,19.53
2022-08-02T23:14:37.831Z,19.50
2022-08-02T23:17:04.281Z,19.59
2022-08-02T23:19:30.690Z,19.51
2022-08-02T23:22:02.313Z,19.51
2022-08-02T23:24:29.568Z,19.51
2022-08-02T23:26:56.038Z,19.57
2022-08-02T23:29:22.454Z,19.57
2022-08-02T23:31:48.890Z,19.53
2022-08-02T23:34:16.009Z,19.50
2022-08-02T23:36:42.448Z,19.53
2022-08-02T23:39:08.992Z,19.51
2022-08-02T23:41:35.425Z,19.55
2022-08-02T23:44:13.921Z,19.58
2022-08-02T23:46:45.728Z,19.61
2022-08-02T23:49:13.511Z,19.61
2022-08-02T23:51:40.006Z,19.58
2022-08-02T23:54:06.449Z,19.59
2022-08-02T23:56:33.076Z,19.53
2022-08-02T23:58:59.527Z,19.55
